sensor_id;sensor_type;location;lat;lon;timestamp;P1;durP1;ratioP1;P2;durP2;ratioP2
34184;SDS011;20454;48.100;11.776;2022-11-20T00:00:53;3.15;;;1.98;;
34184;SDS011;20454;48.100;11.776;2022-11-20T00:03:19;2.45;;;1.60;;
34184;SDS011;20454;48.100;11.776;2022-11-20T00:05:44;1.75;;;1.65;;
34184;SDS011;20454;48.100;11.776;2022-11-20T00:08:10;3.22;;;1.42;;
34184;SDS011;20454;48.100;11.776;2022-11-20T00:10:37;2.33;;;1.90;;
34184;SDS011;20454;48.100;11.776;2022-11-20T00:13:06;3.90;;;1.90;;
34184;SDS011;20454;48.100;11.776;2022-11-20T00:15:32;1.77;;;1.63;;
34184;SDS011;20454;48.100;11.776;2022-11-20T00:17:58;1.67;;;1.33;;
34184;SDS011;20454;48.100;11.776;2022-11-20T00:20:24;1.80;;;1.33;;
34184;SDS011;20454;48.100;11.776;2022-11-20T00:22:50;1.92;;;1.45;;
34184;SDS011;20454;48.100;11.776;2022-11-20T00:25:16;2.85;;;2.55;;
34184;SDS011;20454;48.100;11.776;2022-11-20T00:27:42;2.42;;;2.22;;
34184;SDS011;20454;48.100;11.776;2022-11-20T00:30:08;2.05;;;1.55;;
34184;SDS011;20454;48.100;11.776;2022-11-20T00:32:34;3.28;;;1.23;;
34184;SDS011;20454;48.100;11.776;2022-11-20T00:35:00;3.08;;;1.73;;
34184;SDS011;20454;48.100;11.776;2022-11-20T00:37:26;3.60;;;1.75;;
34184;SDS011;20454;48.100;11.776;2022-11-20T00:39:52;3.90;;;1.45;;
34184;SDS011;20454;48.100;11.776;2022-11-20T00:42:17;1.20;;;1.10;;
34184;SDS011;20454;48.100;11.776;2022-11-20T00:44:43;2.33;;;1.52;;
34184;SDS011;20454;48.100;11.776;2022-11-20T00:47:09;1.70;;;1.20;;
34184;SDS011;20454;48.100;11.776;2022-11-20T00:49:35;1.95;;;1.50;;
34184;SDS011;20454;48.100;11.776;2022-11-20T00:52:01;1.42;;;1.33;;
34184;SDS011;20454;48.100;11.776;2022-11-20T00:54:26;4.03;;;1.63;;
34184;SDS011;20454;48.100;11.776;2022-11-20T00:56:53;1.55;;;1.27;;
34184;SDS011;20454;48.100;11.776;2022-11-20T00:59:18;1.80;;;1.65;;
34184;SDS011;20454;48.100;11.776;2022-11-20T01:01:44;2.35;;;1.83;;
34184;SDS011;20454;48.100;11.776;2022-11-20T01:04:10;1.38;;;1.27;;
34184;SDS011;20454;48.100;11.776;2022-11-20T01:06:36;1.70;;;1.60;;
34184;SDS011;20454;48.100;11.776;2022-11-20T01:09:04;3.72;;;2.05;;
34184;SDS011;20454;48.100;11.776;2022-11-20T01:11:36;3.08;;;1.80;;
34184;SDS011;20454;48.100;11.776;2022-11-20T01:14:07;3.50;;;1.60;;
34184;SDS011;20454;48.100;11.776;2022-11-20T01:16:38;3.97;;;1.67;;
34184;SDS011;20454;48.100;11.776;2022-11-20T01:19:10;2.30;;;1.85;;
34184;SDS011;20454;48.100;11.776;2022-11-20T01:21:40;2.95;;;1.73;;
34184;SDS011;20454;48.100;11.776;2022-11-20T01:24:10;1.60;;;1.50;;
34184;SDS011;20454;48.100;11.776;2022-11-20T01:26:39;1.60;;;1.38;;
34184;SDS011;20454;48.100;11.776;2022-11-20T01:29:07;5.45;;;2.38;;
34184;SDS011;20454;48.100;11.776;2022-11-20T01:31:38;2.05;;;1.77;;
34184;SDS011;20454;48.100;11.776;2022-11-20T01:34:10;1.70;;;1.40;;
34184;SDS011;20454;48.100;11.776;2022-11-20T01:36:39;1.48;;;1.38;;
34184;SDS011;20454;48.100;11.776;2022-11-20T01:39:06;1.50;;;1.40;;
34184;SDS011;20454;48.100;11.776;2022-11-20T01:41:38;1.85;;;1.75;;
34184;SDS011;20454;48.100;11.776;2022-11-20T01:44:42;3.25;;;2.13;;
34184;SDS011;20454;48.100;11.776;2022-11-20T01:47:38;2.40;;;1.60;;
34184;SDS011;20454;48.100;11.776;2022-11-20T01:50:11;4.30;;;2.20;;
34184;SDS011;20454;48.100;11.776;2022-11-20T01:52:52;1.90;;;1.80;;
34184;SDS011;20454;48.100;11.776;2022-11-20T01:55:29;2.50;;;1.52;;
34184;SDS011;20454;48.100;11.776;2022-11-20T01:58:00;1.67;;;1.58;;
34184;SDS011;20454;48.100;11.776;2022-11-20T02:00:27;2.50;;;1.77;;
34184;SDS011;20454;48.100;11.776;2022-11-20T02:02:53;3.45;;;1.77;;
34184;SDS011;20454;48.100;11.776;2022-11-20T02:08:08;5.85;;;2.17;;
34184;SDS011;20454;48.100;11.776;2022-11-20T02:10:34;3.03;;;1.50;;
34184;SDS011;20454;48.100;11.776;2022-11-20T02:13:00;1.90;;;1.73;;
34184;SDS011;20454;48.100;11.776;2022-11-20T02:15:44;2.58;;;2.22;;
34184;SDS011;20454;48.100;11.776;2022-11-20T02:18:11;3.67;;;1.95;;
34184;SDS011;20454;48.100;11.776;2022-11-20T02:20:45;3.88;;;2.05;;
34184;SDS011;20454;48.100;11.776;2022-11-20T02:23:17;2.47;;;2.28;;
34184;SDS011;20454;48.100;11.776;2022-11-20T02:25:56;3.53;;;2.03;;
34184;SDS011;20454;48.100;11.776;2022-11-20T02:28:26;3.00;;;1.83;;
34184;SDS011;20454;48.100;11.776;2022-11-20T02:30:52;6.97;;;3.10;;
34184;SDS011;20454;48.100;11.776;2022-11-20T02:33:18;2.75;;;2.10;;
34184;SDS011;20454;48.100;11.776;2022-11-20T02:35:45;3.53;;;3.22;;
34184;SDS011;20454;48.100;11.776;2022-11-20T02:38:12;2.20;;;2.00;;
34184;SDS011;20454;48.100;11.776;2022-11-20T02:40:39;2.72;;;1.85;;
34184;SDS011;20454;48.100;11.776;2022-11-20T02:43:05;2.22;;;1.85;;
34184;SDS011;20454;48.100;11.776;2022-11-20T02:45:31;2.15;;;1.85;;
34184;SDS011;20454;48.100;11.776;2022-11-20T02:47:57;4.22;;;2.20;;
34184;SDS011;20454;48.100;11.776;2022-11-20T02:50:23;1.98;;;1.80;;
34184;SDS011;20454;48.100;11.776;2022-11-20T02:52:49;4.28;;;1.88;;
34184;SDS011;20454;48.100;11.776;2022-11-20T02:55:15;2.28;;;1.92;;
34184;SDS011;20454;48.100;11.776;2022-11-20T02:57:40;2.42;;;1.98;;
34184;SDS011;20454;48.100;11.776;2022-11-20T03:00:06;1.90;;;1.75;;
34184;SDS011;20454;48.100;11.776;2022-11-20T06:32:27;3.58;;;3.10;;
34184;SDS011;20454;48.100;11.776;2022-11-20T06:34:52;3.10;;;2.80;;
34184;SDS011;20454;48.100;11.776;2022-11-20T06:37:18;4.43;;;3.10;;
34184;SDS011;20454;48.100;11.776;2022-11-20T06:39:44;4.03;;;3.65;;
34184;SDS011;20454;48.100;11.776;2022-11-20T06:42:09;3.78;;;2.90;;
34184;SDS011;20454;48.100;11.776;2022-11-20T06:44:35;3.38;;;3.08;;
34184;SDS011;20454;48.100;11.776;2022-11-20T06:47:01;3.33;;;3.08;;
34184;SDS011;20454;48.100;11.776;2022-11-20T06:49:27;4.18;;;3.83;;
34184;SDS011;20454;48.100;11.776;2022-11-20T06:51:52;5.75;;;4.70;;
34184;SDS011;20454;48.100;11.776;2022-11-20T06:54:18;9.02;;;8.23;;
34184;SDS011;20454;48.100;11.776;2022-11-20T06:56:46;8.85;;;8.25;;
34184;SDS011;20454;48.100;11.776;2022-11-20T06:59:12;5.95;;;3.90;;
34184;SDS011;20454;48.100;11.776;2022-11-20T07:01:38;4.07;;;3.53;;
34184;SDS011;20454;48.100;11.776;2022-11-20T07:04:04;4.80;;;3.03;;
34184;SDS011;20454;48.100;11.776;2022-11-20T07:06:30;3.35;;;3.05;;
34184;SDS011;20454;48.100;11.776;2022-11-20T07:08:56;8.55;;;4.05;;
34184;SDS011;20454;48.100;11.776;2022-11-20T07:11:22;3.63;;;3.33;;
34184;SDS011;20454;48.100;11.776;2022-11-20T07:13:48;3.80;;;3.50;;
34184;SDS011;20454;48.100;11.776;2022-11-20T07:16:14;4.35;;;3.95;;
34184;SDS011;20454;48.100;11.776;2022-11-20T07:18:40;4.00;;;3.13;;
34184;SDS011;20454;48.100;11.776;2022-11-20T07:21:06;2.92;;;2.67;;
34184;SDS011;20454;48.100;11.776;2022-11-20T07:23:35;3.10;;;2.80;;
34184;SDS011;20454;48.100;11.776;2022-11-20T07:26:03;6.95;;;5.75;;
34184;SDS011;20454;48.100;11.776;2022-11-20T07:28:30;11.73;;;10.73;;
34184;SDS011;20454;48.100;11.776;2022-11-20T07:30:56;3.28;;;3.03;;
34184;SDS011;20454;48.100;11.776;2022-11-20T07:33:22;7.20;;;6.30;;
34184;SDS011;20454;48.100;11.776;2022-11-20T07:35:48;6.50;;;3.30;;
34184;SDS011;20454;48.100;11.776;2022-11-20T07:38:13;3.00;;;2.80;;
34184;SDS011;20454;48.100;11.776;2022-11-20T07:40:39;2.72;;;2.53;;
34184;SDS011;20454;48.100;11.776;2022-11-20T07:43:05;7.03;;;3.38;;
34184;SDS011;20454;48.100;11.776;2022-11-20T07:45:31;2.95;;;2.42;;
34184;SDS011;20454;48.100;11.776;2022-11-20T07:47:57;3.63;;;2.35;;
34184;SDS011;20454;48.100;11.776;2022-11-20T07:50:22;2.58;;;2.38;;
34184;SDS011;20454;48.100;11.776;2022-11-20T07:52:48;3.50;;;2.83;;
34184;SDS011;20454;48.100;11.776;2022-11-20T07:55:14;4.43;;;3.10;;
34184;SDS011;20454;48.100;11.776;2022-11-20T07:57:40;4.75;;;2.58;;
34184;SDS011;20454;48.100;11.776;2022-11-20T08:00:07;3.60;;;3.30;;
34184;SDS011;20454;48.100;11.776;2022-11-20T08:02:39;4.72;;;3.88;;
34184;SDS011;20454;48.100;11.776;2022-11-20T08:05:06;5.75;;;4.13;;
34184;SDS011;20454;48.100;11.776;2022-11-20T08:07:37;10.60;;;9.80;;
34184;SDS011;20454;48.100;11.776;2022-11-20T08:10:04;9.65;;;9.15;;
34184;SDS011;20454;48.100;11.776;2022-11-20T11:47:44;0.95;;;0.90;;
34184;SDS011;20454;48.100;11.776;2022-11-20T11:52:46;1.83;;;1.45;;
34184;SDS011;20454;48.100;11.776;2022-11-20T11:55:19;2.95;;;1.58;;
34184;SDS011;20454;48.100;11.776;2022-11-20T11:58:04;2.35;;;2.05;;
34184;SDS011;20454;48.100;11.776;2022-11-20T12:01:00;1.50;;;1.40;;
34184;SDS011;20454;48.100;11.776;2022-11-20T12:03:36;1.38;;;0.90;;
34184;SDS011;20454;48.100;11.776;2022-11-20T12:06:09;1.23;;;0.98;;
34184;SDS011;20454;48.100;11.776;2022-11-20T12:08:49;0.82;;;0.82;;
34184;SDS011;20454;48.100;11.776;2022-11-20T12:13:58;5.22;;;3.70;;
34184;SDS011;20454;48.100;11.776;2022-11-20T12:17:01;4.05;;;3.10;;
34184;SDS011;20454;48.100;11.776;2022-11-20T12:19:29;2.05;;;0.95;;
34184;SDS011;20454;48.100;11.776;2022-11-20T12:30:15;0.93;;;0.90;;
34184;SDS011;20454;48.100;11.776;2022-11-20T12:38:34;3.28;;;2.47;;
34184;SDS011;20454;48.100;11.776;2022-11-20T12:46:06;1.75;;;1.65;;
34184;SDS011;20454;48.100;11.776;2022-11-20T12:51:15;1.30;;;1.20;;
34184;SDS011;20454;48.100;11.776;2022-11-20T12:57:58;2.35;;;1.10;;
34184;SDS011;20454;48.100;11.776;2022-11-20T13:01:06;1.45;;;1.35;;
34184;SDS011;20454;48.100;11.776;2022-11-20T13:06:55;1.55;;;1.30;;
34184;SDS011;20454;48.100;11.776;2022-11-20T13:09:22;3.10;;;1.42;;
34184;SDS011;20454;48.100;11.776;2022-11-20T13:14:41;1.45;;;1.13;;
34184;SDS011;20454;48.100;11.776;2022-11-20T13:17:29;0.80;;;0.80;;
34184;SDS011;20454;48.100;11.776;2022-11-20T13:20:17;1.48;;;1.38;;
34184;SDS011;20454;48.100;11.776;2022-11-20T13:22:44;2.28;;;1.13;;
34184;SDS011;20454;48.100;11.776;2022-11-20T13:25:27;2.47;;;1.20;;
34184;SDS011;20454;48.100;11.776;2022-11-20T13:27:59;1.67;;;1.58;;
34184;SDS011;20454;48.100;11.776;2022-11-20T13:30:35;1.52;;;1.42;;
34184;SDS011;20454;48.100;11.776;2022-11-20T13:33:30;1.23;;;1.13;;
34184;SDS011;20454;48.100;11.776;2022-11-20T13:36:05;4.72;;;1.42;;
34184;SDS011;20454;48.100;11.776;2022-11-20T13:38:54;1.80;;;1.50;;
34184;SDS011;20454;48.100;11.776;2022-11-20T13:41:28;0.95;;;0.90;;
34184;SDS011;20454;48.100;11.776;2022-11-20T13:50:13;1.00;;;0.85;;
34184;SDS011;20454;48.100;11.776;2022-11-20T14:01:29;1.23;;;1.13;;
34184;SDS011;20454;48.100;11.776;2022-11-20T14:03:59;1.45;;;1.10;;
34184;SDS011;20454;48.100;11.776;2022-11-20T14:06:43;1.90;;;1.55;;
34184;SDS011;20454;48.100;11.776;2022-11-20T14:09:12;1.85;;;1.75;;
34184;SDS011;20454;48.100;11.776;2022-11-20T14:11:59;1.70;;;1.00;;
34184;SDS011;20454;48.100;11.776;2022-11-20T14:14:26;1.40;;;1.17;;
34184;SDS011;20454;48.100;11.776;2022-11-20T14:17:08;1.88;;;1.40;;
34184;SDS011;20454;48.100;11.776;2022-11-20T14:19:44;1.58;;;1.25;;
34184;SDS011;20454;48.100;11.776;2022-11-20T14:22:23;3.13;;;1.58;;
34184;SDS011;20454;48.100;11.776;2022-11-20T14:25:06;1.85;;;1.25;;
34184;SDS011;20454;48.100;11.776;2022-11-20T14:27:38;3.00;;;1.55;;
34184;SDS011;20454;48.100;11.776;2022-11-20T14:30:17;3.20;;;1.58;;
34184;SDS011;20454;48.100;11.776;2022-11-20T14:32:47;1.45;;;1.30;;
34184;SDS011;20454;48.100;11.776;2022-11-20T14:35:21;3.40;;;1.70;;
34184;SDS011;20454;48.100;11.776;2022-11-20T14:37:54;3.22;;;2.72;;
34184;SDS011;20454;48.100;11.776;2022-11-20T14:40:42;3.03;;;2.70;;
34184;SDS011;20454;48.100;11.776;2022-11-20T14:51:30;5.75;;;5.05;;
34184;SDS011;20454;48.100;11.776;2022-11-20T14:54:09;6.43;;;5.28;;
34184;SDS011;20454;48.100;11.776;2022-11-20T14:56:54;5.05;;;4.18;;
34184;SDS011;20454;48.100;11.776;2022-11-20T14:59:27;3.33;;;3.03;;
34184;SDS011;20454;48.100;11.776;2022-11-20T15:02:00;2.13;;;1.85;;
34184;SDS011;20454;48.100;11.776;2022-11-20T15:04:29;1.67;;;1.13;;
34184;SDS011;20454;48.100;11.776;2022-11-20T15:06:56;3.70;;;2.00;;
34184;SDS011;20454;48.100;11.776;2022-11-20T15:09:25;2.50;;;2.30;;
34184;SDS011;20454;48.100;11.776;2022-11-20T15:11:55;1.75;;;1.50;;
34184;SDS011;20454;48.100;11.776;2022-11-20T15:14:27;1.63;;;1.30;;
34184;SDS011;20454;48.100;11.776;2022-11-20T15:16:55;1.30;;;1.08;;
34184;SDS011;20454;48.100;11.776;2022-11-20T15:19:25;1.55;;;1.10;;
34184;SDS011;20454;48.100;11.776;2022-11-20T15:21:51;3.20;;;1.35;;
34184;SDS011;20454;48.100;11.776;2022-11-20T15:24:17;1.45;;;1.30;;
34184;SDS011;20454;48.100;11.776;2022-11-20T15:26:44;1.65;;;0.93;;
34184;SDS011;20454;48.100;11.776;2022-11-20T15:29:14;1.45;;;1.23;;
34184;SDS011;20454;48.100;11.776;2022-11-20T15:31:43;1.02;;;0.90;;
34184;SDS011;20454;48.100;11.776;2022-11-20T15:34:10;1.30;;;0.70;;
34184;SDS011;20454;48.100;11.776;2022-11-20T15:36:41;1.40;;;0.77;;
34184;SDS011;20454;48.100;11.776;2022-11-20T15:39:08;0.80;;;0.80;;
34184;SDS011;20454;48.100;11.776;2022-11-20T15:41:36;0.68;;;0.60;;
34184;SDS011;20454;48.100;11.776;2022-11-20T15:44:03;0.93;;;0.68;;
34184;SDS011;20454;48.100;11.776;2022-11-20T15:46:30;0.70;;;0.60;;
34184;SDS011;20454;48.100;11.776;2022-11-20T15:49:03;0.68;;;0.68;;
34184;SDS011;20454;48.100;11.776;2022-11-20T15:51:30;1.98;;;1.48;;
34184;SDS011;20454;48.100;11.776;2022-11-20T15:54:11;2.57;;;1.47;;
34184;SDS011;20454;48.100;11.776;2022-11-20T15:56:46;1.20;;;1.10;;
34184;SDS011;20454;48.100;11.776;2022-11-20T15:59:13;1.58;;;1.15;;
34184;SDS011;20454;48.100;11.776;2022-11-20T16:01:42;1.63;;;1.10;;
34184;SDS011;20454;48.100;11.776;2022-11-20T16:04:09;1.30;;;1.20;;
34184;SDS011;20454;48.100;11.776;2022-11-20T16:06:37;1.42;;;1.27;;
34184;SDS011;20454;48.100;11.776;2022-11-20T16:09:03;1.33;;;1.00;;
34184;SDS011;20454;48.100;11.776;2022-11-20T16:11:29;1.75;;;1.30;;
34184;SDS011;20454;48.100;11.776;2022-11-20T16:13:54;3.53;;;2.30;;
34184;SDS011;20454;48.100;11.776;2022-11-20T16:16:38;3.60;;;2.95;;
34184;SDS011;20454;48.100;11.776;2022-11-20T16:19:09;5.68;;;3.78;;
34184;SDS011;20454;48.100;11.776;2022-11-20T16:21:39;4.93;;;2.95;;
34184;SDS011;20454;48.100;11.776;2022-11-20T16:24:07;3.58;;;2.35;;
34184;SDS011;20454;48.100;11.776;2022-11-20T16:26:38;2.40;;;2.10;;
34184;SDS011;20454;48.100;11.776;2022-11-20T16:29:05;2.35;;;1.80;;
34184;SDS011;20454;48.100;11.776;2022-11-20T16:31:35;4.88;;;3.25;;
34184;SDS011;20454;48.100;11.776;2022-11-20T16:34:02;33.25;;;13.55;;
34184;SDS011;20454;48.100;11.776;2022-11-20T16:36:31;17.95;;;9.57;;
34184;SDS011;20454;48.100;11.776;2022-11-20T16:38:58;16.25;;;13.38;;
34184;SDS011;20454;48.100;11.776;2022-11-20T16:41:27;10.45;;;9.65;;
34184;SDS011;20454;48.100;11.776;2022-11-20T16:43:57;14.90;;;13.73;;
34184;SDS011;20454;48.100;11.776;2022-11-20T16:46:26;14.48;;;13.23;;
34184;SDS011;20454;48.100;11.776;2022-11-20T16:49:05;10.23;;;9.60;;
34184;SDS011;20454;48.100;11.776;2022-11-20T16:51:36;6.38;;;5.88;;
34184;SDS011;20454;48.100;11.776;2022-11-20T16:54:03;4.50;;;4.10;;
34184;SDS011;20454;48.100;11.776;2022-11-20T16:56:31;5.50;;;4.32;;
34184;SDS011;20454;48.100;11.776;2022-11-20T16:58:58;5.97;;;3.78;;
34184;SDS011;20454;48.100;11.776;2022-11-20T17:01:26;5.93;;;5.00;;
34184;SDS011;20454;48.100;11.776;2022-11-20T17:03:54;6.72;;;5.72;;
34184;SDS011;20454;48.100;11.776;2022-11-20T17:06:26;7.35;;;6.50;;
34184;SDS011;20454;48.100;11.776;2022-11-20T17:08:55;10.07;;;6.45;;
34184;SDS011;20454;48.100;11.776;2022-11-20T17:11:23;5.32;;;4.93;;
34184;SDS011;20454;48.100;11.776;2022-11-20T17:13:50;4.60;;;4.13;;
34184;SDS011;20454;48.100;11.776;2022-11-20T17:16:20;4.28;;;3.88;;
34184;SDS011;20454;48.100;11.776;2022-11-20T17:18:47;5.28;;;4.47;;
34184;SDS011;20454;48.100;11.776;2022-11-20T17:21:17;4.50;;;4.13;;
34184;SDS011;20454;48.100;11.776;2022-11-20T17:23:45;5.85;;;5.35;;
34184;SDS011;20454;48.100;11.776;2022-11-20T17:26:15;7.38;;;6.68;;
34184;SDS011;20454;48.100;11.776;2022-11-20T17:28:54;10.40;;;9.18;;
34184;SDS011;20454;48.100;11.776;2022-11-20T17:31:27;20.88;;;14.65;;
34184;SDS011;20454;48.100;11.776;2022-11-20T17:33:55;26.48;;;15.48;;
34184;SDS011;20454;48.100;11.776;2022-11-20T17:36:23;21.08;;;14.00;;
34184;SDS011;20454;48.100;11.776;2022-11-20T17:38:49;19.92;;;13.68;;
34184;SDS011;20454;48.100;11.776;2022-11-20T17:41:16;16.50;;;12.45;;
34184;SDS011;20454;48.100;11.776;2022-11-20T17:43:44;15.35;;;11.07;;
34184;SDS011;20454;48.100;11.776;2022-11-20T17:46:12;15.98;;;11.20;;
34184;SDS011;20454;48.100;11.776;2022-11-20T17:48:43;12.10;;;9.77;;
34184;SDS011;20454;48.100;11.776;2022-11-20T17:51:11;10.48;;;9.52;;
34184;SDS011;20454;48.100;11.776;2022-11-20T17:53:43;11.15;;;8.35;;
34184;SDS011;20454;48.100;11.776;2022-11-20T19:52:55;6.45;;;5.85;;
34184;SDS011;20454;48.100;11.776;2022-11-20T19:55:21;4.18;;;3.78;;
34184;SDS011;20454;48.100;11.776;2022-11-20T19:57:47;3.47;;;3.28;;
34184;SDS011;20454;48.100;11.776;2022-11-20T20:00:13;4.72;;;2.28;;
34184;SDS011;20454;48.100;11.776;2022-11-20T20:02:39;2.95;;;2.75;;
34184;SDS011;20454;48.100;11.776;2022-11-20T20:05:05;2.92;;;2.70;;
34184;SDS011;20454;48.100;11.776;2022-11-20T20:07:31;2.67;;;2.47;;
34184;SDS011;20454;48.100;11.776;2022-11-20T20:09:57;3.13;;;2.80;;
34184;SDS011;20454;48.100;11.776;2022-11-20T20:12:22;2.63;;;2.38;;
34184;SDS011;20454;48.100;11.776;2022-11-20T20:14:48;4.85;;;3.10;;
34184;SDS011;20454;48.100;11.776;2022-11-20T20:17:14;3.78;;;3.47;;
34184;SDS011;20454;48.100;11.776;2022-11-20T20:19:39;6.65;;;5.13;;
34184;SDS011;20454;48.100;11.776;2022-11-20T20:22:05;6.20;;;4.20;;
34184;SDS011;20454;48.100;11.776;2022-11-20T20:24:31;4.95;;;3.40;;
34184;SDS011;20454;48.100;11.776;2022-11-20T20:26:56;5.20;;;3.05;;
34184;SDS011;20454;48.100;11.776;2022-11-20T20:29:22;2.08;;;1.48;;
34184;SDS011;20454;48.100;11.776;2022-11-20T20:31:48;2.28;;;1.75;;
34184;SDS011;20454;48.100;11.776;2022-11-20T20:34:14;1.70;;;1.60;;
34184;SDS011;20454;48.100;11.776;2022-11-20T20:36:40;1.58;;;1.40;;
34184;SDS011;20454;48.100;11.776;2022-11-20T20:39:06;1.80;;;1.70;;
34184;SDS011;20454;48.100;11.776;2022-11-20T20:41:34;2.00;;;1.73;;
34184;SDS011;20454;48.100;11.776;2022-11-20T20:44:00;3.83;;;1.55;;
34184;SDS011;20454;48.100;11.776;2022-11-20T20:46:44;1.80;;;1.42;;
34184;SDS011;20454;48.100;11.776;2022-11-20T20:49:10;1.35;;;1.25;;
34184;SDS011;20454;48.100;11.776;2022-11-20T20:51:36;1.45;;;1.35;;
34184;SDS011;20454;48.100;11.776;2022-11-20T20:54:02;2.25;;;1.50;;
34184;SDS011;20454;48.100;11.776;2022-11-20T20:56:29;1.35;;;1.25;;
34184;SDS011;20454;48.100;11.776;2022-11-20T20:58:54;1.27;;;1.17;;
34184;SDS011;20454;48.100;11.776;2022-11-20T21:01:20;1.70;;;1.60;;
34184;SDS011;20454;48.100;11.776;2022-11-20T21:03:46;2.38;;;1.40;;
34184;SDS011;20454;48.100;11.776;2022-11-20T21:06:12;3.63;;;2.35;;
34184;SDS011;20454;48.100;11.776;2022-11-20T21:08:38;5.03;;;2.30;;
34184;SDS011;20454;48.100;11.776;2022-11-20T21:11:06;2.33;;;2.13;;
34184;SDS011;20454;48.100;11.776;2022-11-20T21:13:35;2.72;;;1.58;;
34184;SDS011;20454;48.100;11.776;2022-11-20T21:16:02;1.27;;;1.17;;
34184;SDS011;20454;48.100;11.776;2022-11-20T21:18:29;2.88;;;1.90;;
34184;SDS011;20454;48.100;11.776;2022-11-20T21:20:56;1.88;;;1.50;;
34184;SDS011;20454;48.100;11.776;2022-11-20T21:23:44;5.07;;;3.05;;
34184;SDS011;20454;48.100;11.776;2022-11-20T21:26:11;7.47;;;3.25;;
34184;SDS011;20454;48.100;11.776;2022-11-20T21:28:37;7.18;;;3.65;;
34184;SDS011;20454;48.100;11.776;2022-11-20T21:31:10;4.78;;;2.65;;
34184;SDS011;20454;48.100;11.776;2022-11-20T21:33:38;4.78;;;3.40;;
34184;SDS011;20454;48.100;11.776;2022-11-20T21:36:05;5.43;;;3.00;;
34184;SDS011;20454;48.100;11.776;2022-11-20T21:38:32;4.80;;;2.85;;
34184;SDS011;20454;48.100;11.776;2022-11-20T21:40:59;9.00;;;3.03;;
34184;SDS011;20454;48.100;11.776;2022-11-20T21:43:25;11.25;;;3.70;;
34184;SDS011;20454;48.100;11.776;2022-11-20T21:45:51;4.80;;;2.17;;
34184;SDS011;20454;48.100;11.776;2022-11-20T21:48:17;4.75;;;2.67;;
34184;SDS011;20454;48.100;11.776;2022-11-20T21:50:43;2.63;;;2.42;;
34184;SDS011;20454;48.100;11.776;2022-11-20T21:53:08;2.58;;;1.90;;
34184;SDS011;20454;48.100;11.776;2022-11-20T21:55:34;1.88;;;1.77;;
34184;SDS011;20454;48.100;11.776;2022-11-20T21:58:00;3.40;;;2.17;;
34184;SDS011;20454;48.100;11.776;2022-11-20T22:00:25;2.85;;;1.90;;
34184;SDS011;20454;48.100;11.776;2022-11-20T22:02:52;3.97;;;1.90;;
34184;SDS011;20454;48.100;11.776;2022-11-20T22:05:18;2.75;;;2.45;;
34184;SDS011;20454;48.100;11.776;2022-11-20T22:07:44;2.22;;;1.58;;
34184;SDS011;20454;48.100;11.776;2022-11-20T22:10:10;1.33;;;1.23;;
34184;SDS011;20454;48.100;11.776;2022-11-20T22:12:36;1.27;;;1.00;;
34184;SDS011;20454;48.100;11.776;2022-11-20T22:15:02;1.10;;;1.00;;
34184;SDS011;20454;48.100;11.776;2022-11-20T22:17:29;1.25;;;1.23;;
34184;SDS011;20454;48.100;11.776;2022-11-20T22:20:16;3.88;;;0.80;;
34184;SDS011;20454;48.100;11.776;2022-11-20T22:22:41;1.30;;;1.10;;
34184;SDS011;20454;48.100;11.776;2022-11-20T22:25:07;3.13;;;0.80;;
34184;SDS011;20454;48.100;11.776;2022-11-20T22:27:33;0.80;;;0.80;;
34184;SDS011;20454;48.100;11.776;2022-11-20T22:29:59;2.08;;;1.10;;
34184;SDS011;20454;48.100;11.776;2022-11-20T22:32:25;1.17;;;1.08;;
34184;SDS011;20454;48.100;11.776;2022-11-20T22:34:50;2.42;;;0.80;;
34184;SDS011;20454;48.100;11.776;2022-11-20T22:37:16;1.08;;;1.05;;
34184;SDS011;20454;48.100;11.776;2022-11-20T22:39:42;0.85;;;0.85;;
34184;SDS011;20454;48.100;11.776;2022-11-20T22:42:07;1.27;;;1.17;;
34184;SDS011;20454;48.100;11.776;2022-11-20T22:44:33;1.42;;;1.15;;
34184;SDS011;20454;48.100;11.776;2022-11-20T22:46:59;3.42;;;1.38;;
34184;SDS011;20454;48.100;11.776;2022-11-20T22:49:24;1.48;;;1.15;;
34184;SDS011;20454;48.100;11.776;2022-11-20T22:51:50;1.98;;;1.05;;
34184;SDS011;20454;48.100;11.776;2022-11-20T22:54:16;2.55;;;1.48;;
34184;SDS011;20454;48.100;11.776;2022-11-20T22:56:41;1.77;;;1.10;;
34184;SDS011;20454;48.100;11.776;2022-11-20T22:59:07;2.17;;;1.00;;
34184;SDS011;20454;48.100;11.776;2022-11-20T23:01:34;2.40;;;1.25;;
34184;SDS011;20454;48.100;11.776;2022-11-20T23:04:02;1.10;;;1.10;;
34184;SDS011;20454;48.100;11.776;2022-11-20T23:06:30;3.33;;;1.08;;
34184;SDS011;20454;48.100;11.776;2022-11-20T23:09:00;1.40;;;1.30;;
34184;SDS011;20454;48.100;11.776;2022-11-20T23:11:28;0.82;;;0.82;;
34184;SDS011;20454;48.100;11.776;2022-11-20T23:13:56;1.48;;;1.00;;
34184;SDS011;20454;48.100;11.776;2022-11-20T23:16:25;1.10;;;1.00;;
34184;SDS011;20454;48.100;11.776;2022-11-20T23:18:56;1.52;;;1.20;;
34184;SDS011;20454;48.100;11.776;2022-11-20T23:21:29;1.73;;;1.30;;
34184;SDS011;20454;48.100;11.776;2022-11-20T23:23:55;2.63;;;1.00;;
34184;SDS011;20454;48.100;11.776;2022-11-20T23:26:23;1.38;;;0.80;;
34184;SDS011;20454;48.100;11.776;2022-11-20T23:28:54;1.42;;;1.00;;
34184;SDS011;20454;48.100;11.776;2022-11-20T23:31:22;1.80;;;0.68;;
34184;SDS011;20454;48.100;11.776;2022-11-20T23:33:49;1.85;;;1.20;;
34184;SDS011;20454;48.100;11.776;2022-11-20T23:36:15;1.15;;;0.85;;
34184;SDS011;20454;48.100;11.776;2022-11-20T23:38:41;5.60;;;1.17;;
34184;SDS011;20454;48.100;11.776;2022-11-20T23:41:07;1.00;;;1.00;;
34184;SDS011;20454;48.100;11.776;2022-11-20T23:43:36;4.90;;;0.82;;
34184;SDS011;20454;48.100;11.776;2022-11-20T23:46:02;1.35;;;1.00;;
34184;SDS011;20454;48.100;11.776;2022-11-20T23:48:30;0.70;;;0.70;;
34184;SDS011;20454;48.100;11.776;2022-11-20T23:51:00;2.08;;;0.70;;
34184;SDS011;20454;48.100;11.776;2022-11-20T23:53:28;0.60;;;0.60;;
34184;SDS011;20454;48.100;11.776;2022-11-20T23:55:54;0.75;;;0.60;;
34184;SDS011;20454;48.100;11.776;2022-11-20T23:58:23;0.93;;;0.52;;
